EDT,Max TemperatureF,Mean TemperatureF,Min TemperatureF,Max Dew PointF,MeanDew PointF,Min DewpointF,Max Humidity, Mean Humidity, Min Humidity, Max Sea Level PressureIn, Mean Sea Level PressureIn, Min Sea Level PressureIn, Max VisibilityMiles, Mean VisibilityMiles, Min VisibilityMiles, Max Wind SpeedMPH, Mean Wind SpeedMPH, Max Gust SpeedMPH,PrecipitationIn, CloudCover, Events, WindDirDegrees
2013-10-1,77,66,55,59,57,55,100,75,50,30.13,30.08,30.04,10,8,2,9,2,13,0.00,3,,238
2013-10-2,80,68,56,62,59,56,100,76,52,30.16,30.11,30.07,10,9,5,10,2,15,0.00,2,,201
2013-10-3,80,70,59,65,62,58,100,79,58,30.14,30.10,30.05,10,8,4,8,1,12,0.02,2,Rain,0
2013-10-4,81,72,63,65,63,62,100,77,54,30.17,30.11,30.06,10,6,0,9,2,14,0.00,5,Fog,214
2013-10-5,83,73,62,65,63,61,93,74,54,30.13,30.08,30.01,10,10,7,12,2,15,0.00,1,Fog,188
2013-10-6,85,76,66,64,60,55,93,67,40,29.99,29.91,29.79,10,10,2,14,5,20,0.00,1,,179
2013-10-7,73,59,45,58,51,40,100,74,47,30.17,29.91,29.72,10,8,1,14,5,22,0.64,6,Rain,222
2013-10-8,68,54,40,47,44,39,100,71,42,30.32,30.26,30.17,10,10,8,10,2,15,0.00,0,,27
2013-10-9,69,55,41,43,40,31,96,61,26,30.32,30.28,30.24,10,10,9,12,3,17,0.00,0,,71
2013-10-10,68,61,53,53,47,39,86,69,52,30.22,30.16,30.09,10,10,10,8,3,14,0.00,3,,50
2013-10-11,58,56,53,56,53,51,93,90,86,30.11,30.08,30.05,10,7,2,10,4,13,0.08,8,Rain,8
2013-10-12,74,64,54,61,56,54,100,82,64,30.17,30.11,30.06,10,9,4,14,4,21,0.00,7,,61
2013-10-13,74,66,58,58,55,54,87,72,57,30.27,30.23,30.16,10,10,10,12,4,16,0.00,5,,98
2013-10-14,66,62,57,59,56,53,93,86,78,30.31,30.27,30.24,10,9,2,9,2,12,0.09,8,Rain,26
2013-10-15,74,64,53,57,54,52,93,71,49,30.23,30.12,30.01,10,10,10,8,1,10,0.00,1,,110
2013-10-16,70,62,54,59,53,46,90,73,56,30.01,29.97,29.91,10,10,8,10,4,18,T,6,Rain,211
2013-10-17,62,56,50,61,55,46,100,92,83,29.95,29.87,29.72,10,5,1,14,3,23,0.26,8,Rain,285
2013-10-18,61,52,42,47,41,37,100,71,42,30.09,30.01,29.96,10,10,7,10,3,15,0.00,3,,228
2013-10-19,55,46,37,48,42,36,100,83,66,30.00,29.91,29.81,10,9,5,15,4,23,0.10,5,Rain,242
2013-10-20,58,48,38,39,37,33,100,70,40,30.10,30.05,29.99,10,10,10,15,5,26,0.00,2,,209
2013-10-21,66,51,36,38,35,33,85,57,29,30.11,30.02,29.90,10,10,10,13,3,18,0.00,1,,202
2013-10-22,57,49,40,46,39,31,93,69,44,30.01,29.94,29.87,10,9,4,10,3,20,0.19,6,Rain,224
2013-10-23,42,40,37,38,37,34,92,89,85,29.99,29.84,29.77,10,9,4,9,3,15,0.29,8,Rain,267
2013-10-24,42,37,32,36,33,29,96,78,60,30.20,30.07,29.96,10,9,4,13,5,18,0.03,7,Rain-Snow,220
2013-10-25,44,37,29,34,31,28,100,79,57,30.41,30.33,30.22,10,8,5,13,4,17,0.00,5,,202
2013-10-26,51,41,30,29,26,21,92,62,32,30.32,30.13,29.96,10,10,10,17,8,25,0.00,3,,209
2013-10-27,55,44,32,34,31,28,89,64,38,30.14,30.09,30.02,10,10,10,9,3,15,0.00,1,,221
2013-10-28,61,46,31,38,33,30,100,66,32,30.31,30.24,30.13,10,10,7,8,1,12,0.00,0,,271
2013-10-29,62,47,31,38,35,30,96,66,36,30.40,30.34,30.27,10,9,3,6,0,8,0.00,0,,15
2013-10-30,60,53,45,56,50,36,93,79,65,30.25,30.20,30.14,10,10,10,8,1,8,T,7,Rain,200
2013-10-31,70,64,58,57,54,50,93,72,51,30.13,29.90,29.54,10,10,6,22,7,30,0.09,7,Rain,188